sensor_id;sensor_type;location;lat;lon;timestamp;temperature;humidity
34815;DHT22;21030;53.912;15.214;2023-04-25T00:01:03;29.50;27.60
34815;DHT22;21030;53.912;15.214;2023-04-25T00:03:32;29.80;27.60
34815;DHT22;21030;53.912;15.214;2023-04-25T00:06:00;29.40;27.30
34815;DHT22;21030;53.912;15.214;2023-04-25T00:08:30;29.50;27.80
34815;DHT22;21030;53.912;15.214;2023-04-25T00:10:57;30.20;27.30
34815;DHT22;21030;53.912;15.214;2023-04-25T00:13:25;30.70;26.40
34815;DHT22;21030;53.912;15.214;2023-04-25T00:15:53;30.70;26.80
34815;DHT22;21030;53.912;15.214;2023-04-25T00:18:20;30.90;26.30
34815;DHT22;21030;53.912;15.214;2023-04-25T00:20:47;30.30;26.80
34815;DHT22;21030;53.912;15.214;2023-04-25T00:23:16;30.70;26.40
34815;DHT22;21030;53.912;15.214;2023-04-25T00:25:45;29.80;26.50
34815;DHT22;21030;53.912;15.214;2023-04-25T00:28:13;28.50;27.60
34815;DHT22;21030;53.912;15.214;2023-04-25T00:30:41;28.20;28.10
34815;DHT22;21030;53.912;15.214;2023-04-25T00:33:08;28.50;28.40
34815;DHT22;21030;53.912;15.214;2023-04-25T00:35:35;28.90;27.80
34815;DHT22;21030;53.912;15.214;2023-04-25T00:38:03;29.30;27.80
34815;DHT22;21030;53.912;15.214;2023-04-25T00:40:30;29.90;27.10
34815;DHT22;21030;53.912;15.214;2023-04-25T00:42:56;31.00;26.30
34815;DHT22;21030;53.912;15.214;2023-04-25T00:45:27;31.10;25.90
34815;DHT22;21030;53.912;15.214;2023-04-25T00:47:56;31.40;25.60
34815;DHT22;21030;53.912;15.214;2023-04-25T00:50:24;30.50;26.10
34815;DHT22;21030;53.912;15.214;2023-04-25T00:52:52;30.40;26.20
34815;DHT22;21030;53.912;15.214;2023-04-25T00:55:19;30.30;26.90
34815;DHT22;21030;53.912;15.214;2023-04-25T00:57:46;30.90;26.30
34815;DHT22;21030;53.912;15.214;2023-04-25T01:00:14;29.50;26.30
34815;DHT22;21030;53.912;15.214;2023-04-25T01:02:41;30.10;27.00
34815;DHT22;21030;53.912;15.214;2023-04-25T01:05:09;29.20;26.90
34815;DHT22;21030;53.912;15.214;2023-04-25T01:07:37;29.20;27.20
34815;DHT22;21030;53.912;15.214;2023-04-25T01:10:05;30.30;26.70
34815;DHT22;21030;53.912;15.214;2023-04-25T01:12:33;30.30;26.30
34815;DHT22;21030;53.912;15.214;2023-04-25T01:15:00;30.50;26.30
34815;DHT22;21030;53.912;15.214;2023-04-25T01:17:28;30.90;25.80
34815;DHT22;21030;53.912;15.214;2023-04-25T01:19:56;30.70;25.60
34815;DHT22;21030;53.912;15.214;2023-04-25T01:22:23;30.40;25.80
34815;DHT22;21030;53.912;15.214;2023-04-25T01:24:50;30.40;26.00
34815;DHT22;21030;53.912;15.214;2023-04-25T01:27:18;30.30;26.20
34815;DHT22;21030;53.912;15.214;2023-04-25T01:29:45;29.90;26.50
34815;DHT22;21030;53.912;15.214;2023-04-25T01:32:13;29.40;26.50
34815;DHT22;21030;53.912;15.214;2023-04-25T01:34:41;29.10;26.80
34815;DHT22;21030;53.912;15.214;2023-04-25T01:37:08;28.20;27.70
34815;DHT22;21030;53.912;15.214;2023-04-25T01:39:35;28.20;27.90
34815;DHT22;21030;53.912;15.214;2023-04-25T01:42:02;28.20;28.00
34815;DHT22;21030;53.912;15.214;2023-04-25T01:44:29;27.50;28.50
34815;DHT22;21030;53.912;15.214;2023-04-25T01:46:56;28.20;28.30
34815;DHT22;21030;53.912;15.214;2023-04-25T01:49:24;27.60;28.10
34815;DHT22;21030;53.912;15.214;2023-04-25T01:51:51;27.50;28.80
34815;DHT22;21030;53.912;15.214;2023-04-25T01:54:18;27.20;28.60
34815;DHT22;21030;53.912;15.214;2023-04-25T01:56:50;27.10;29.30
34815;DHT22;21030;53.912;15.214;2023-04-25T01:59:18;26.70;29.10
34815;DHT22;21030;53.912;15.214;2023-04-25T02:01:46;27.20;29.10
34815;DHT22;21030;53.912;15.214;2023-04-25T02:04:13;27.30;28.70
34815;DHT22;21030;53.912;15.214;2023-04-25T02:06:40;27.40;28.90
34815;DHT22;21030;53.912;15.214;2023-04-25T02:09:07;27.60;28.60
34815;DHT22;21030;53.912;15.214;2023-04-25T02:11:34;27.30;28.70
34815;DHT22;21030;53.912;15.214;2023-04-25T02:14:02;26.60;29.30
34815;DHT22;21030;53.912;15.214;2023-04-25T02:16:29;27.10;29.40
34815;DHT22;21030;53.912;15.214;2023-04-25T02:18:57;27.70;28.50
34815;DHT22;21030;53.912;15.214;2023-04-25T02:21:24;28.20;27.90
34815;DHT22;21030;53.912;15.214;2023-04-25T02:23:53;27.30;28.20
34815;DHT22;21030;53.912;15.214;2023-04-25T02:26:20;27.40;28.80
34815;DHT22;21030;53.912;15.214;2023-04-25T02:28:48;27.20;28.70
34815;DHT22;21030;53.912;15.214;2023-04-25T02:31:15;27.40;28.90
34815;DHT22;21030;53.912;15.214;2023-04-25T02:33:43;27.30;28.70
34815;DHT22;21030;53.912;15.214;2023-04-25T02:36:10;27.10;28.90
34815;DHT22;21030;53.912;15.214;2023-04-25T02:38:37;27.10;29.30
34815;DHT22;21030;53.912;15.214;2023-04-25T02:41:04;27.20;28.90
34815;DHT22;21030;53.912;15.214;2023-04-25T02:43:32;27.20;28.80
34815;DHT22;21030;53.912;15.214;2023-04-25T02:45:59;26.70;29.20
34815;DHT22;21030;53.912;15.214;2023-04-25T02:48:27;26.70;29.10
34815;DHT22;21030;53.912;15.214;2023-04-25T02:50:55;27.30;29.10
34815;DHT22;21030;53.912;15.214;2023-04-25T02:53:22;27.30;28.80
34815;DHT22;21030;53.912;15.214;2023-04-25T02:55:49;26.70;29.30
34815;DHT22;21030;53.912;15.214;2023-04-25T02:58:16;26.60;29.60
34815;DHT22;21030;53.912;15.214;2023-04-25T03:00:44;26.50;29.70
34815;DHT22;21030;53.912;15.214;2023-04-25T03:03:11;27.10;29.10
34815;DHT22;21030;53.912;15.214;2023-04-25T03:05:38;27.30;28.70
34815;DHT22;21030;53.912;15.214;2023-04-25T03:08:05;28.20;28.30
34815;DHT22;21030;53.912;15.214;2023-04-25T03:10:32;27.80;28.20
34815;DHT22;21030;53.912;15.214;2023-04-25T03:13:00;27.60;28.40
34815;DHT22;21030;53.912;15.214;2023-04-25T03:15:27;27.70;28.60
34815;DHT22;21030;53.912;15.214;2023-04-25T03:17:55;28.60;28.10
34815;DHT22;21030;53.912;15.214;2023-04-25T03:20:22;28.50;27.70
34815;DHT22;21030;53.912;15.214;2023-04-25T03:22:49;28.50;28.10
34815;DHT22;21030;53.912;15.214;2023-04-25T03:25:17;27.80;28.20
34815;DHT22;21030;53.912;15.214;2023-04-25T03:27:44;28.10;28.10
34815;DHT22;21030;53.912;15.214;2023-04-25T03:30:11;27.60;28.80
34815;DHT22;21030;53.912;15.214;2023-04-25T03:32:38;27.20;28.80
34815;DHT22;21030;53.912;15.214;2023-04-25T03:35:05;26.20;29.60
34815;DHT22;21030;53.912;15.214;2023-04-25T03:37:33;27.10;29.80
34815;DHT22;21030;53.912;15.214;2023-04-25T03:40:00;27.00;29.20
34815;DHT22;21030;53.912;15.214;2023-04-25T03:42:27;26.60;29.60
34815;DHT22;21030;53.912;15.214;2023-04-25T03:44:55;27.00;29.40
34815;DHT22;21030;53.912;15.214;2023-04-25T03:47:22;26.80;29.40
34815;DHT22;21030;53.912;15.214;2023-04-25T03:49:49;26.70;30.00
34815;DHT22;21030;53.912;15.214;2023-04-25T03:52:18;26.90;30.30
34815;DHT22;21030;53.912;15.214;2023-04-25T03:54:45;27.50;29.80
34815;DHT22;21030;53.912;15.214;2023-04-25T03:57:12;28.10;29.80
34815;DHT22;21030;53.912;15.214;2023-04-25T03:59:39;29.10;29.30
34815;DHT22;21030;53.912;15.214;2023-04-25T04:02:07;28.90;28.70
34815;DHT22;21030;53.912;15.214;2023-04-25T04:04:34;28.50;29.30
34815;DHT22;21030;53.912;15.214;2023-04-25T04:07:01;28.80;29.70
34815;DHT22;21030;53.912;15.214;2023-04-25T04:09:28;29.60;28.80
34815;DHT22;21030;53.912;15.214;2023-04-25T04:11:55;29.70;28.20
34815;DHT22;21030;53.912;15.214;2023-04-25T04:14:23;29.40;28.70
34815;DHT22;21030;53.912;15.214;2023-04-25T04:16:51;29.70;28.20
34815;DHT22;21030;53.912;15.214;2023-04-25T04:19:18;29.50;28.50
34815;DHT22;21030;53.912;15.214;2023-04-25T04:21:45;29.30;28.30
34815;DHT22;21030;53.912;15.214;2023-04-25T04:24:12;28.90;29.30
34815;DHT22;21030;53.912;15.214;2023-04-25T04:26:39;29.50;28.70
34815;DHT22;21030;53.912;15.214;2023-04-25T04:29:06;29.60;29.10
34815;DHT22;21030;53.912;15.214;2023-04-25T04:31:33;29.60;28.20
34815;DHT22;21030;53.912;15.214;2023-04-25T04:34:00;29.60;28.70
34815;DHT22;21030;53.912;15.214;2023-04-25T04:36:28;29.50;28.80
34815;DHT22;21030;53.912;15.214;2023-04-25T04:38:55;29.10;28.90
34815;DHT22;21030;53.912;15.214;2023-04-25T04:41:23;28.80;29.40
34815;DHT22;21030;53.912;15.214;2023-04-25T04:43:50;28.40;29.50
34815;DHT22;21030;53.912;15.214;2023-04-25T04:46:17;28.00;29.80
34815;DHT22;21030;53.912;15.214;2023-04-25T04:48:45;27.50;31.60
34815;DHT22;21030;53.912;15.214;2023-04-25T04:51:12;28.40;30.60
34815;DHT22;21030;53.912;15.214;2023-04-25T04:53:39;28.30;30.30
34815;DHT22;21030;53.912;15.214;2023-04-25T04:56:06;28.50;30.10
34815;DHT22;21030;53.912;15.214;2023-04-25T04:58:33;28.20;30.20
34815;DHT22;21030;53.912;15.214;2023-04-25T05:01:00;27.30;30.40
34815;DHT22;21030;53.912;15.214;2023-04-25T05:03:28;27.20;30.90
34815;DHT22;21030;53.912;15.214;2023-04-25T05:05:55;27.60;31.00
34815;DHT22;21030;53.912;15.214;2023-04-25T05:08:22;27.40;31.30
34815;DHT22;21030;53.912;15.214;2023-04-25T05:10:49;27.30;31.30
34815;DHT22;21030;53.912;15.214;2023-04-25T05:13:16;27.30;31.50
34815;DHT22;21030;53.912;15.214;2023-04-25T05:15:43;27.90;31.20
34815;DHT22;21030;53.912;15.214;2023-04-25T05:18:11;27.80;30.70
34815;DHT22;21030;53.912;15.214;2023-04-25T05:20:38;28.30;30.90
34815;DHT22;21030;53.912;15.214;2023-04-25T05:23:05;28.20;30.90
34815;DHT22;21030;53.912;15.214;2023-04-25T05:25:33;28.10;30.80
34815;DHT22;21030;53.912;15.214;2023-04-25T05:28:00;28.50;30.20
34815;DHT22;21030;53.912;15.214;2023-04-25T05:30:27;29.10;30.00
34815;DHT22;21030;53.912;15.214;2023-04-25T05:32:54;29.50;29.50
34815;DHT22;21030;53.912;15.214;2023-04-25T05:35:21;29.50;29.30
34815;DHT22;21030;53.912;15.214;2023-04-25T05:37:48;29.30;29.70
34815;DHT22;21030;53.912;15.214;2023-04-25T05:40:15;29.20;29.30
34815;DHT22;21030;53.912;15.214;2023-04-25T05:42:42;28.90;29.60
34815;DHT22;21030;53.912;15.214;2023-04-25T05:45:10;29.10;29.40
34815;DHT22;21030;53.912;15.214;2023-04-25T05:47:37;29.00;29.80
34815;DHT22;21030;53.912;15.214;2023-04-25T05:50:05;29.20;29.40
34815;DHT22;21030;53.912;15.214;2023-04-25T05:52:32;29.30;29.00
34815;DHT22;21030;53.912;15.214;2023-04-25T05:54:59;29.20;29.10
34815;DHT22;21030;53.912;15.214;2023-04-25T05:57:27;29.50;28.80
34815;DHT22;21030;53.912;15.214;2023-04-25T05:59:54;30.50;28.80
34815;DHT22;21030;53.912;15.214;2023-04-25T06:02:21;31.20;28.10
34815;DHT22;21030;53.912;15.214;2023-04-25T06:04:52;31.00;27.70
34815;DHT22;21030;53.912;15.214;2023-04-25T06:07:20;30.40;27.60
34815;DHT22;21030;53.912;15.214;2023-04-25T06:09:47;31.10;27.80
34815;DHT22;21030;53.912;15.214;2023-04-25T06:12:14;31.10;27.40
34815;DHT22;21030;53.912;15.214;2023-04-25T06:14:41;30.70;27.70
34815;DHT22;21030;53.912;15.214;2023-04-25T06:17:08;30.30;27.80
34815;DHT22;21030;53.912;15.214;2023-04-25T06:19:35;30.00;28.50
34815;DHT22;21030;53.912;15.214;2023-04-25T06:22:03;30.20;28.40
34815;DHT22;21030;53.912;15.214;2023-04-25T06:24:30;30.60;28.00
34815;DHT22;21030;53.912;15.214;2023-04-25T06:26:57;31.50;27.60
34815;DHT22;21030;53.912;15.214;2023-04-25T06:29:24;31.50;27.30
34815;DHT22;21030;53.912;15.214;2023-04-25T06:31:51;30.50;27.40
34815;DHT22;21030;53.912;15.214;2023-04-25T06:34:19;29.90;28.10
34815;DHT22;21030;53.912;15.214;2023-04-25T06:36:46;29.90;28.60
34815;DHT22;21030;53.912;15.214;2023-04-25T06:39:13;30.70;28.10
34815;DHT22;21030;53.912;15.214;2023-04-25T06:41:40;30.80;28.00
34815;DHT22;21030;53.912;15.214;2023-04-25T06:44:07;31.00;27.90
34815;DHT22;21030;53.912;15.214;2023-04-25T06:46:34;31.10;28.20
34815;DHT22;21030;53.912;15.214;2023-04-25T06:49:01;31.70;27.40
34815;DHT22;21030;53.912;15.214;2023-04-25T06:51:28;30.70;27.90
34815;DHT22;21030;53.912;15.214;2023-04-25T06:53:57;30.30;28.20
34815;DHT22;21030;53.912;15.214;2023-04-25T06:56:24;30.40;28.30
34815;DHT22;21030;53.912;15.214;2023-04-25T06:58:51;30.30;28.50
34815;DHT22;21030;53.912;15.214;2023-04-25T07:01:19;30.60;28.70
34815;DHT22;21030;53.912;15.214;2023-04-25T07:03:47;31.30;28.20
34815;DHT22;21030;53.912;15.214;2023-04-25T07:06:14;32.80;27.20
34815;DHT22;21030;53.912;15.214;2023-04-25T07:08:41;33.10;26.30
34815;DHT22;21030;53.912;15.214;2023-04-25T07:11:09;33.80;26.10
34815;DHT22;21030;53.912;15.214;2023-04-25T07:13:36;34.20;25.70
34815;DHT22;21030;53.912;15.214;2023-04-25T07:16:03;33.90;25.30
34815;DHT22;21030;53.912;15.214;2023-04-25T07:18:31;34.10;25.40
34815;DHT22;21030;53.912;15.214;2023-04-25T07:20:58;34.40;25.50
34815;DHT22;21030;53.912;15.214;2023-04-25T07:23:25;34.90;25.40
34815;DHT22;21030;53.912;15.214;2023-04-25T07:25:52;34.60;25.30
34815;DHT22;21030;53.912;15.214;2023-04-25T07:28:19;34.30;25.30
34815;DHT22;21030;53.912;15.214;2023-04-25T07:30:47;33.80;25.40
34815;DHT22;21030;53.912;15.214;2023-04-25T07:33:14;33.70;25.20
34815;DHT22;21030;53.912;15.214;2023-04-25T07:35:41;32.50;25.60
34815;DHT22;21030;53.912;15.214;2023-04-25T07:38:08;32.80;26.00
34815;DHT22;21030;53.912;15.214;2023-04-25T07:40:37;33.30;25.90
34815;DHT22;21030;53.912;15.214;2023-04-25T07:43:04;33.90;25.60
34815;DHT22;21030;53.912;15.214;2023-04-25T07:45:31;34.30;24.90
34815;DHT22;21030;53.912;15.214;2023-04-25T07:47:58;34.60;24.90
34815;DHT22;21030;53.912;15.214;2023-04-25T07:50:26;34.90;24.20
34815;DHT22;21030;53.912;15.214;2023-04-25T07:52:53;33.90;24.20
34815;DHT22;21030;53.912;15.214;2023-04-25T07:55:20;33.00;25.10
34815;DHT22;21030;53.912;15.214;2023-04-25T07:57:47;34.30;25.30
34815;DHT22;21030;53.912;15.214;2023-04-25T08:00:14;34.30;24.30
34815;DHT22;21030;53.912;15.214;2023-04-25T08:02:41;32.60;24.40
34815;DHT22;21030;53.912;15.214;2023-04-25T08:05:09;30.80;26.00
34815;DHT22;21030;53.912;15.214;2023-04-25T08:07:39;30.60;26.60
34815;DHT22;21030;53.912;15.214;2023-04-25T08:10:07;31.70;26.70
34815;DHT22;21030;53.912;15.214;2023-04-25T08:12:34;32.70;26.10
34815;DHT22;21030;53.912;15.214;2023-04-25T08:15:02;32.40;25.30
34815;DHT22;21030;53.912;15.214;2023-04-25T08:17:29;31.40;25.90
34815;DHT22;21030;53.912;15.214;2023-04-25T08:19:56;32.10;26.00
34815;DHT22;21030;53.912;15.214;2023-04-25T08:22:23;31.40;25.80
34815;DHT22;21030;53.912;15.214;2023-04-25T08:24:51;30.50;26.70
34815;DHT22;21030;53.912;15.214;2023-04-25T08:27:18;30.70;26.60
34815;DHT22;21030;53.912;15.214;2023-04-25T08:29:45;30.30;26.90
34815;DHT22;21030;53.912;15.214;2023-04-25T08:32:12;30.20;26.90
34815;DHT22;21030;53.912;15.214;2023-04-25T08:34:40;29.90;27.20
34815;DHT22;21030;53.912;15.214;2023-04-25T08:37:09;29.80;27.60
34815;DHT22;21030;53.912;15.214;2023-04-25T08:39:37;30.10;27.50
34815;DHT22;21030;53.912;15.214;2023-04-25T08:42:06;30.00;27.60
34815;DHT22;21030;53.912;15.214;2023-04-25T08:44:36;29.70;27.60
34815;DHT22;21030;53.912;15.214;2023-04-25T08:47:05;29.80;28.00
34815;DHT22;21030;53.912;15.214;2023-04-25T08:49:33;29.80;27.70
34815;DHT22;21030;53.912;15.214;2023-04-25T08:52:03;30.20;27.80
34815;DHT22;21030;53.912;15.214;2023-04-25T08:54:32;30.50;27.80
34815;DHT22;21030;53.912;15.214;2023-04-25T08:57:03;31.40;27.40
34815;DHT22;21030;53.912;15.214;2023-04-25T08:59:32;32.00;26.70
34815;DHT22;21030;53.912;15.214;2023-04-25T09:02:00;32.10;26.60
34815;DHT22;21030;53.912;15.214;2023-04-25T09:04:29;30.80;26.20
34815;DHT22;21030;53.912;15.214;2023-04-25T09:06:57;30.00;26.60
34815;DHT22;21030;53.912;15.214;2023-04-25T09:09:25;30.30;27.00
34815;DHT22;21030;53.912;15.214;2023-04-25T09:11:54;29.50;26.20
34815;DHT22;21030;53.912;15.214;2023-04-25T09:14:22;28.70;26.40
34815;DHT22;21030;53.912;15.214;2023-04-25T09:19:25;28.20;26.40
34815;DHT22;21030;53.912;15.214;2023-04-25T09:22:07;28.30;26.40
34815;DHT22;21030;53.912;15.214;2023-04-25T09:24:44;29.00;26.10
34815;DHT22;21030;53.912;15.214;2023-04-25T09:27:21;28.00;25.90
34815;DHT22;21030;53.912;15.214;2023-04-25T09:29:57;28.20;26.80
34815;DHT22;21030;53.912;15.214;2023-04-25T09:32:27;28.10;26.00
34815;DHT22;21030;53.912;15.214;2023-04-25T09:34:57;29.00;25.90
34815;DHT22;21030;53.912;15.214;2023-04-25T09:37:26;28.80;25.10
34815;DHT22;21030;53.912;15.214;2023-04-25T09:39:58;28.80;25.20
34815;DHT22;21030;53.912;15.214;2023-04-25T09:42:27;28.40;24.90
34815;DHT22;21030;53.912;15.214;2023-04-25T09:44:56;29.30;24.90
34815;DHT22;21030;53.912;15.214;2023-04-25T09:47:25;30.20;24.50
34815;DHT22;21030;53.912;15.214;2023-04-25T09:49:54;32.00;24.00
34815;DHT22;21030;53.912;15.214;2023-04-25T09:52:25;32.80;23.00
34815;DHT22;21030;53.912;15.214;2023-04-25T09:54:52;31.60;22.10
34815;DHT22;21030;53.912;15.214;2023-04-25T09:57:21;31.70;22.80
34815;DHT22;21030;53.912;15.214;2023-04-25T09:59:51;31.40;23.10
34815;DHT22;21030;53.912;15.214;2023-04-25T10:02:21;31.80;23.10
34815;DHT22;21030;53.912;15.214;2023-04-25T10:04:53;32.40;23.10
34815;DHT22;21030;53.912;15.214;2023-04-25T10:07:24;32.30;22.30
34815;DHT22;21030;53.912;15.214;2023-04-25T10:09:59;32.00;22.40
34815;DHT22;21030;53.912;15.214;2023-04-25T10:12:29;31.70;22.20
34815;DHT22;21030;53.912;15.214;2023-04-25T10:14:58;31.80;22.60
34815;DHT22;21030;53.912;15.214;2023-04-25T10:17:26;32.40;22.00
34815;DHT22;21030;53.912;15.214;2023-04-25T10:19:55;32.50;21.30
34815;DHT22;21030;53.912;15.214;2023-04-25T10:22:38;32.30;21.30
34815;DHT22;21030;53.912;15.214;2023-04-25T10:25:07;32.10;21.00
34815;DHT22;21030;53.912;15.214;2023-04-25T10:27:35;31.70;20.60
34815;DHT22;21030;53.912;15.214;2023-04-25T10:30:06;32.30;20.30
34815;DHT22;21030;53.912;15.214;2023-04-25T10:32:37;32.30;20.30
34815;DHT22;21030;53.912;15.214;2023-04-25T10:35:17;33.10;20.40
34815;DHT22;21030;53.912;15.214;2023-04-25T10:38:04;32.90;19.70
34815;DHT22;21030;53.912;15.214;2023-04-25T10:40:33;34.00;19.70
34815;DHT22;21030;53.912;15.214;2023-04-25T10:45:59;34.50;18.70
34815;DHT22;21030;53.912;15.214;2023-04-25T10:48:28;32.40;18.70
34815;DHT22;21030;53.912;15.214;2023-04-25T10:51:15;31.30;19.90
34815;DHT22;21030;53.912;15.214;2023-04-25T10:53:44;31.30;19.80
34815;DHT22;21030;53.912;15.214;2023-04-25T10:58:46;31.60;20.00
34815;DHT22;21030;53.912;15.214;2023-04-25T11:01:21;31.30;19.60
34815;DHT22;21030;53.912;15.214;2023-04-25T11:03:57;31.10;19.50
34815;DHT22;21030;53.912;15.214;2023-04-25T11:06:52;31.30;20.00
34815;DHT22;21030;53.912;15.214;2023-04-25T11:09:39;30.10;20.70
34815;DHT22;21030;53.912;15.214;2023-04-25T11:12:09;30.30;21.40
34815;DHT22;21030;53.912;15.214;2023-04-25T11:14:39;30.50;20.90
34815;DHT22;21030;53.912;15.214;2023-04-25T11:17:06;30.40;20.50
34815;DHT22;21030;53.912;15.214;2023-04-25T11:19:33;30.00;20.70
34815;DHT22;21030;53.912;15.214;2023-04-25T11:22:01;30.50;21.00
34815;DHT22;21030;53.912;15.214;2023-04-25T11:24:29;30.70;20.60
34815;DHT22;21030;53.912;15.214;2023-04-25T11:27:01;30.00;20.70
34815;DHT22;21030;53.912;15.214;2023-04-25T11:29:34;28.90;21.30
34815;DHT22;21030;53.912;15.214;2023-04-25T11:32:02;28.80;21.40
34815;DHT22;21030;53.912;15.214;2023-04-25T11:34:30;28.90;21.80
34815;DHT22;21030;53.912;15.214;2023-04-25T11:36:58;29.10;21.90
34815;DHT22;21030;53.912;15.214;2023-04-25T11:39:26;28.70;21.70
34815;DHT22;21030;53.912;15.214;2023-04-25T11:41:54;29.90;21.70
34815;DHT22;21030;53.912;15.214;2023-04-25T11:44:21;30.50;20.90
34815;DHT22;21030;53.912;15.214;2023-04-25T11:46:49;30.80;20.10
34815;DHT22;21030;53.912;15.214;2023-04-25T11:49:16;30.10;20.40
34815;DHT22;21030;53.912;15.214;2023-04-25T11:51:46;29.90;20.00
34815;DHT22;21030;53.912;15.214;2023-04-25T11:54:14;29.30;20.20
34815;DHT22;21030;53.912;15.214;2023-04-25T11:56:45;29.60;20.40
34815;DHT22;21030;53.912;15.214;2023-04-25T11:59:13;29.60;20.10
34815;DHT22;21030;53.912;15.214;2023-04-25T12:01:46;30.20;20.10
34815;DHT22;21030;53.912;15.214;2023-04-25T12:04:19;30.40;19.30
34815;DHT22;21030;53.912;15.214;2023-04-25T12:06:51;30.10;19.40
34815;DHT22;21030;53.912;15.214;2023-04-25T12:09:28;30.30;19.30
34815;DHT22;21030;53.912;15.214;2023-04-25T12:11:56;30.30;18.80
34815;DHT22;21030;53.912;15.214;2023-04-25T12:14:31;30.90;19.10
34815;DHT22;21030;53.912;15.214;2023-04-25T12:17:01;30.60;19.20
34815;DHT22;21030;53.912;15.214;2023-04-25T12:19:35;30.90;19.20
34815;DHT22;21030;53.912;15.214;2023-04-25T12:22:03;30.70;19.10
34815;DHT22;21030;53.912;15.214;2023-04-25T12:24:45;30.10;19.30
34815;DHT22;21030;53.912;15.214;2023-04-25T12:27:15;30.10;19.30
34815;DHT22;21030;53.912;15.214;2023-04-25T12:29:52;31.50;19.40
34815;DHT22;21030;53.912;15.214;2023-04-25T12:32:19;32.00;18.90
34815;DHT22;21030;53.912;15.214;2023-04-25T12:34:47;31.20;18.40
34815;DHT22;21030;53.912;15.214;2023-04-25T12:37:14;30.90;18.60
34815;DHT22;21030;53.912;15.214;2023-04-25T12:39:41;30.60;19.10
34815;DHT22;21030;53.912;15.214;2023-04-25T12:42:08;30.30;18.70
34815;DHT22;21030;53.912;15.214;2023-04-25T12:44:39;29.90;18.70
34815;DHT22;21030;53.912;15.214;2023-04-25T12:47:06;29.80;18.50
34815;DHT22;21030;53.912;15.214;2023-04-25T12:49:34;30.00;18.50
34815;DHT22;21030;53.912;15.214;2023-04-25T12:52:01;29.10;18.80
34815;DHT22;21030;53.912;15.214;2023-04-25T12:54:28;29.00;19.30
34815;DHT22;21030;53.912;15.214;2023-04-25T12:56:55;29.10;19.20
34815;DHT22;21030;53.912;15.214;2023-04-25T12:59:23;28.90;19.60
34815;DHT22;21030;53.912;15.214;2023-04-25T13:01:50;28.50;19.60
34815;DHT22;21030;53.912;15.214;2023-04-25T13:04:17;28.60;20.00
34815;DHT22;21030;53.912;15.214;2023-04-25T13:06:44;29.10;19.50
34815;DHT22;21030;53.912;15.214;2023-04-25T13:09:11;28.80;19.50
34815;DHT22;21030;53.912;15.214;2023-04-25T13:11:39;29.30;19.50
34815;DHT22;21030;53.912;15.214;2023-04-25T13:14:08;29.80;19.00
34815;DHT22;21030;53.912;15.214;2023-04-25T13:16:35;29.20;18.70
34815;DHT22;21030;53.912;15.214;2023-04-25T13:19:02;29.10;19.10
34815;DHT22;21030;53.912;15.214;2023-04-25T13:21:30;29.40;19.20
34815;DHT22;21030;53.912;15.214;2023-04-25T13:23:59;30.50;19.00
34815;DHT22;21030;53.912;15.214;2023-04-25T13:26:26;31.40;18.80
34815;DHT22;21030;53.912;15.214;2023-04-25T13:28:53;31.80;18.60
34815;DHT22;21030;53.912;15.214;2023-04-25T13:31:20;31.70;18.50
34815;DHT22;21030;53.912;15.214;2023-04-25T13:33:48;31.60;18.70
34815;DHT22;21030;53.912;15.214;2023-04-25T13:36:15;31.00;18.90
34815;DHT22;21030;53.912;15.214;2023-04-25T13:38:42;31.20;19.20
34815;DHT22;21030;53.912;15.214;2023-04-25T13:41:11;30.50;19.30
34815;DHT22;21030;53.912;15.214;2023-04-25T13:43:45;30.30;19.40
34815;DHT22;21030;53.912;15.214;2023-04-25T13:46:14;31.00;19.50
34815;DHT22;21030;53.912;15.214;2023-04-25T13:49:01;30.30;19.40
34815;DHT22;21030;53.912;15.214;2023-04-25T13:51:41;29.70;19.40
34815;DHT22;21030;53.912;15.214;2023-04-25T13:54:09;29.70;20.10
34815;DHT22;21030;53.912;15.214;2023-04-25T13:56:36;29.00;20.20
34815;DHT22;21030;53.912;15.214;2023-04-25T13:59:03;29.80;20.50
34815;DHT22;21030;53.912;15.214;2023-04-25T14:01:30;30.40;20.00
34815;DHT22;21030;53.912;15.214;2023-04-25T14:04:01;30.30;20.00
34815;DHT22;21030;53.912;15.214;2023-04-25T14:06:31;31.10;20.00
34815;DHT22;21030;53.912;15.214;2023-04-25T14:08:58;31.60;19.40
34815;DHT22;21030;53.912;15.214;2023-04-25T14:11:28;31.20;19.20
34815;DHT22;21030;53.912;15.214;2023-04-25T14:13:54;30.40;19.30
34815;DHT22;21030;53.912;15.214;2023-04-25T14:16:22;30.20;20.20
34815;DHT22;21030;53.912;15.214;2023-04-25T14:18:50;30.10;20.50
34815;DHT22;21030;53.912;15.214;2023-04-25T14:21:17;29.00;20.70
34815;DHT22;21030;53.912;15.214;2023-04-25T14:23:44;28.50;20.80
34815;DHT22;21030;53.912;15.214;2023-04-25T14:26:12;28.30;21.10
34815;DHT22;21030;53.912;15.214;2023-04-25T14:28:39;27.80;21.80
34815;DHT22;21030;53.912;15.214;2023-04-25T14:31:06;28.10;21.90
34815;DHT22;21030;53.912;15.214;2023-04-25T14:33:34;28.20;21.70
34815;DHT22;21030;53.912;15.214;2023-04-25T14:36:01;28.40;21.50
34815;DHT22;21030;53.912;15.214;2023-04-25T14:38:29;28.50;21.60
34815;DHT22;21030;53.912;15.214;2023-04-25T14:40:56;29.20;21.50
34815;DHT22;21030;53.912;15.214;2023-04-25T14:43:23;30.10;20.60
34815;DHT22;21030;53.912;15.214;2023-04-25T14:45:50;30.40;20.40
34815;DHT22;21030;53.912;15.214;2023-04-25T14:48:18;30.80;20.20
34815;DHT22;21030;53.912;15.214;2023-04-25T14:50:46;31.00;19.40
34815;DHT22;21030;53.912;15.214;2023-04-25T14:53:13;31.10;19.10
34815;DHT22;21030;53.912;15.214;2023-04-25T14:55:40;31.60;18.60
34815;DHT22;21030;53.912;15.214;2023-04-25T14:58:07;30.70;18.70
34815;DHT22;21030;53.912;15.214;2023-04-25T15:00:35;31.00;19.00
34815;DHT22;21030;53.912;15.214;2023-04-25T15:03:02;31.50;18.90
34815;DHT22;21030;53.912;15.214;2023-04-25T15:05:30;33.00;18.10
34815;DHT22;21030;53.912;15.214;2023-04-25T15:07:58;33.10;17.90
34815;DHT22;21030;53.912;15.214;2023-04-25T15:10:25;33.70;17.90
34815;DHT22;21030;53.912;15.214;2023-04-25T15:12:52;34.20;17.60
34815;DHT22;21030;53.912;15.214;2023-04-25T15:15:20;34.00;17.40
34815;DHT22;21030;53.912;15.214;2023-04-25T15:17:53;33.80;17.40
34815;DHT22;21030;53.912;15.214;2023-04-25T15:20:25;33.60;17.60
34815;DHT22;21030;53.912;15.214;2023-04-25T15:22:53;33.10;17.90
34815;DHT22;21030;53.912;15.214;2023-04-25T15:25:21;33.20;18.20
34815;DHT22;21030;53.912;15.214;2023-04-25T15:27:48;31.80;18.30
34815;DHT22;21030;53.912;15.214;2023-04-25T15:30:17;31.80;18.50